sensor_id;sensor_type;location;lat;lon;timestamp;P1;durP1;ratioP1;P2;durP2;ratioP2
80910;SDS011;70359;51.420;7.032;2023-07-13T00:00:26;1.7;;;1;;
80910;SDS011;70359;51.420;7.032;2023-07-13T00:02:55;1.7;;;1;;
80910;SDS011;70359;51.420;7.032;2023-07-13T00:05:16;1.1;;;1;;
80910;SDS011;70359;51.420;7.032;2023-07-13T00:07:41;1.1;;;1;;
80910;SDS011;70359;51.420;7.032;2023-07-13T00:10:08;0.6;;;0.6;;
80910;SDS011;70359;51.420;7.032;2023-07-13T00:12:33;0.6;;;0.6;;
80910;SDS011;70359;51.420;7.032;2023-07-13T00:14:56;0.9;;;0.8;;
80910;SDS011;70359;51.420;7.032;2023-07-13T00:17:21;0.9;;;0.8;;
80910;SDS011;70359;51.420;7.032;2023-07-13T00:19:46;2.2;;;0.8;;
80910;SDS011;70359;51.420;7.032;2023-07-13T00:22:11;2.2;;;0.8;;
80910;SDS011;70359;51.420;7.032;2023-07-13T00:24:40;0.9;;;0.9;;
80910;SDS011;70359;51.420;7.032;2023-07-13T00:27:01;0.9;;;0.9;;
80910;SDS011;70359;51.420;7.032;2023-07-13T00:29:26;0.7;;;0.7;;
80910;SDS011;70359;51.420;7.032;2023-07-13T00:31:51;0.7;;;0.7;;
80910;SDS011;70359;51.420;7.032;2023-07-13T00:34:16;1;;;0.8;;
80910;SDS011;70359;51.420;7.032;2023-07-13T00:36:41;1;;;0.8;;
80910;SDS011;70359;51.420;7.032;2023-07-13T00:39:06;1.2;;;0.9;;
80910;SDS011;70359;51.420;7.032;2023-07-13T00:41:31;1.2;;;0.9;;
80910;SDS011;70359;51.420;7.032;2023-07-13T00:43:56;1.7;;;0.7;;
80910;SDS011;70359;51.420;7.032;2023-07-13T00:46:25;1.7;;;0.7;;
80910;SDS011;70359;51.420;7.032;2023-07-13T00:48:48;1.3;;;0.7;;
80910;SDS011;70359;51.420;7.032;2023-07-13T00:51:11;1.3;;;0.7;;
80910;SDS011;70359;51.420;7.032;2023-07-13T00:53:36;1.4;;;1.1;;
80910;SDS011;70359;51.420;7.032;2023-07-13T00:56:02;1.4;;;1.1;;
80910;SDS011;70359;51.420;7.032;2023-07-13T00:58:26;1.4;;;1.1;;
80910;SDS011;70359;51.420;7.032;2023-07-13T01:00:51;3.4;;;0.7;;
80910;SDS011;70359;51.420;7.032;2023-07-13T01:03:17;3.4;;;0.7;;
80910;SDS011;70359;51.420;7.032;2023-07-13T01:05:41;0.7;;;0.7;;
80910;SDS011;70359;51.420;7.032;2023-07-13T01:08:06;0.7;;;0.7;;
80910;SDS011;70359;51.420;7.032;2023-07-13T01:10:31;0.6;;;0.5;;
80910;SDS011;70359;51.420;7.032;2023-07-13T01:12:56;0.6;;;0.5;;
80910;SDS011;70359;51.420;7.032;2023-07-13T01:15:41;0.7;;;0.7;;
80910;SDS011;70359;51.420;7.032;2023-07-13T01:17:50;0.7;;;0.7;;
80910;SDS011;70359;51.420;7.032;2023-07-13T01:20:12;0.9;;;0.7;;
80910;SDS011;70359;51.420;7.032;2023-07-13T01:22:40;0.9;;;0.7;;
80910;SDS011;70359;51.420;7.032;2023-07-13T01:25:01;0.6;;;0.6;;
80910;SDS011;70359;51.420;7.032;2023-07-13T01:27:30;0.6;;;0.6;;
80910;SDS011;70359;51.420;7.032;2023-07-13T01:29:52;1.3;;;0.8;;
80910;SDS011;70359;51.420;7.032;2023-07-13T01:32:20;1.3;;;0.8;;
80910;SDS011;70359;51.420;7.032;2023-07-13T01:34:41;0.7;;;0.6;;
80910;SDS011;70359;51.420;7.032;2023-07-13T01:37:06;0.7;;;0.6;;
80910;SDS011;70359;51.420;7.032;2023-07-13T01:39:35;1.6;;;0.8;;
80910;SDS011;70359;51.420;7.032;2023-07-13T01:41:56;1.6;;;0.8;;
80910;SDS011;70359;51.420;7.032;2023-07-13T01:44:25;2.5;;;0.8;;
80910;SDS011;70359;51.420;7.032;2023-07-13T01:46:46;2.5;;;0.8;;
80910;SDS011;70359;51.420;7.032;2023-07-13T01:49:11;0.7;;;0.5;;
80910;SDS011;70359;51.420;7.032;2023-07-13T01:51:36;0.7;;;0.5;;
80910;SDS011;70359;51.420;7.032;2023-07-13T01:54:01;0.8;;;0.7;;
80910;SDS011;70359;51.420;7.032;2023-07-13T01:56:26;0.8;;;0.7;;
80910;SDS011;70359;51.420;7.032;2023-07-13T01:58:52;1.1;;;0.9;;
80910;SDS011;70359;51.420;7.032;2023-07-13T02:01:20;1.1;;;0.9;;
80910;SDS011;70359;51.420;7.032;2023-07-13T02:03:41;0.6;;;0.6;;
80910;SDS011;70359;51.420;7.032;2023-07-13T02:06:06;0.6;;;0.6;;
80910;SDS011;70359;51.420;7.032;2023-07-13T02:08:32;0.6;;;0.6;;
80910;SDS011;70359;51.420;7.032;2023-07-13T02:10:56;1.1;;;1;;
80910;SDS011;70359;51.420;7.032;2023-07-13T02:13:21;1.1;;;1;;
80910;SDS011;70359;51.420;7.032;2023-07-13T02:15:49;1.1;;;0.9;;
80910;SDS011;70359;51.420;7.032;2023-07-13T02:18:15;1.1;;;0.9;;
80910;SDS011;70359;51.420;7.032;2023-07-13T02:20:36;1;;;0.9;;
80910;SDS011;70359;51.420;7.032;2023-07-13T02:23:02;1;;;0.9;;
80910;SDS011;70359;51.420;7.032;2023-07-13T02:25:26;1.2;;;0.9;;
80910;SDS011;70359;51.420;7.032;2023-07-13T02:27:52;1.2;;;0.9;;
80910;SDS011;70359;51.420;7.032;2023-07-13T02:30:17;2.4;;;0.8;;
80910;SDS011;70359;51.420;7.032;2023-07-13T02:32:41;2.4;;;0.8;;
80910;SDS011;70359;51.420;7.032;2023-07-13T02:35:07;0.9;;;0.7;;
80910;SDS011;70359;51.420;7.032;2023-07-13T02:37:35;0.9;;;0.7;;
80910;SDS011;70359;51.420;7.032;2023-07-13T02:39:57;0.7;;;0.7;;
80910;SDS011;70359;51.420;7.032;2023-07-13T02:42:22;0.7;;;0.7;;
80910;SDS011;70359;51.420;7.032;2023-07-13T02:44:47;0.7;;;0.5;;
80910;SDS011;70359;51.420;7.032;2023-07-13T02:47:12;0.7;;;0.5;;
80910;SDS011;70359;51.420;7.032;2023-07-13T02:49:37;1;;;0.8;;
80910;SDS011;70359;51.420;7.032;2023-07-13T02:52:02;1;;;0.8;;
80910;SDS011;70359;51.420;7.032;2023-07-13T02:54:30;1.7;;;1;;
80910;SDS011;70359;51.420;7.032;2023-07-13T02:56:52;1.7;;;1;;
80910;SDS011;70359;51.420;7.032;2023-07-13T02:59:17;0.7;;;0.7;;
80910;SDS011;70359;51.420;7.032;2023-07-13T03:01:45;0.7;;;0.7;;
80910;SDS011;70359;51.420;7.032;2023-07-13T03:04:11;3.6;;;1;;
80910;SDS011;70359;51.420;7.032;2023-07-13T03:06:32;3.6;;;1;;
80910;SDS011;70359;51.420;7.032;2023-07-13T03:08:57;0.9;;;0.8;;
80910;SDS011;70359;51.420;7.032;2023-07-13T03:11:26;0.9;;;0.8;;
80910;SDS011;70359;51.420;7.032;2023-07-13T03:13:47;0.7;;;0.7;;
80910;SDS011;70359;51.420;7.032;2023-07-13T03:16:12;0.7;;;0.7;;
80910;SDS011;70359;51.420;7.032;2023-07-13T03:18:37;0.7;;;0.7;;
80910;SDS011;70359;51.420;7.032;2023-07-13T03:21:02;1;;;0.8;;
80910;SDS011;70359;51.420;7.032;2023-07-13T03:23:27;1;;;0.8;;
80910;SDS011;70359;51.420;7.032;2023-07-13T03:26:00;1.3;;;0.8;;
80910;SDS011;70359;51.420;7.032;2023-07-13T03:28:17;1.3;;;0.8;;
80910;SDS011;70359;51.420;7.032;2023-07-13T03:30:42;1;;;0.8;;
80910;SDS011;70359;51.420;7.032;2023-07-13T03:33:07;1;;;0.8;;
80910;SDS011;70359;51.420;7.032;2023-07-13T03:35:36;0.7;;;0.7;;
80910;SDS011;70359;51.420;7.032;2023-07-13T03:37:57;0.7;;;0.7;;
80910;SDS011;70359;51.420;7.032;2023-07-13T03:40:22;1.2;;;0.7;;
80910;SDS011;70359;51.420;7.032;2023-07-13T03:42:47;1.2;;;0.7;;
80910;SDS011;70359;51.420;7.032;2023-07-13T03:45:12;0.8;;;0.6;;
80910;SDS011;70359;51.420;7.032;2023-07-13T03:47:37;0.8;;;0.6;;
80910;SDS011;70359;51.420;7.032;2023-07-13T03:50:02;1.1;;;0.8;;
80910;SDS011;70359;51.420;7.032;2023-07-13T03:52:27;1.1;;;0.8;;
80910;SDS011;70359;51.420;7.032;2023-07-13T03:54:52;1.4;;;0.9;;
80910;SDS011;70359;51.420;7.032;2023-07-13T03:57:18;1.4;;;0.9;;
80910;SDS011;70359;51.420;7.032;2023-07-13T03:59:42;0.6;;;0.6;;
80910;SDS011;70359;51.420;7.032;2023-07-13T04:02:11;0.6;;;0.6;;
80910;SDS011;70359;51.420;7.032;2023-07-13T04:04:32;0.7;;;0.7;;
80910;SDS011;70359;51.420;7.032;2023-07-13T04:07:01;0.7;;;0.7;;
80910;SDS011;70359;51.420;7.032;2023-07-13T04:09:26;0.9;;;0.7;;
80910;SDS011;70359;51.420;7.032;2023-07-13T04:11:51;0.9;;;0.7;;
80910;SDS011;70359;51.420;7.032;2023-07-13T04:14:16;1.4;;;1.1;;
80910;SDS011;70359;51.420;7.032;2023-07-13T04:16:37;1.4;;;1.1;;
80910;SDS011;70359;51.420;7.032;2023-07-13T04:19:02;0.9;;;0.8;;
80910;SDS011;70359;51.420;7.032;2023-07-13T04:21:28;0.9;;;0.8;;
80910;SDS011;70359;51.420;7.032;2023-07-13T04:23:56;1;;;0.7;;
80910;SDS011;70359;51.420;7.032;2023-07-13T04:26:21;1;;;0.7;;
80910;SDS011;70359;51.420;7.032;2023-07-13T04:28:42;1;;;0.7;;
80910;SDS011;70359;51.420;7.032;2023-07-13T04:31:07;1.2;;;0.8;;
80910;SDS011;70359;51.420;7.032;2023-07-13T04:33:32;1.2;;;0.8;;
80910;SDS011;70359;51.420;7.032;2023-07-13T04:36:01;1.1;;;0.8;;
80910;SDS011;70359;51.420;7.032;2023-07-13T04:38:22;1.1;;;0.8;;
80910;SDS011;70359;51.420;7.032;2023-07-13T04:40:48;1.3;;;0.8;;
80910;SDS011;70359;51.420;7.032;2023-07-13T04:43:12;1.3;;;0.8;;
80910;SDS011;70359;51.420;7.032;2023-07-13T04:45:41;1.1;;;0.8;;
80910;SDS011;70359;51.420;7.032;2023-07-13T04:48:02;1.1;;;0.8;;
80910;SDS011;70359;51.420;7.032;2023-07-13T04:50:27;1.2;;;0.9;;
80910;SDS011;70359;51.420;7.032;2023-07-13T04:52:52;1.2;;;0.9;;
80910;SDS011;70359;51.420;7.032;2023-07-13T04:55:17;0.6;;;0.6;;
80910;SDS011;70359;51.420;7.032;2023-07-13T04:57:42;0.6;;;0.6;;
80910;SDS011;70359;51.420;7.032;2023-07-13T05:00:08;1.2;;;0.7;;
80910;SDS011;70359;51.420;7.032;2023-07-13T05:02:37;1.2;;;0.7;;
80910;SDS011;70359;51.420;7.032;2023-07-13T05:04:57;0.9;;;0.9;;
80910;SDS011;70359;51.420;7.032;2023-07-13T05:07:22;0.9;;;0.9;;
80910;SDS011;70359;51.420;7.032;2023-07-13T05:09:47;0.6;;;0.6;;
80910;SDS011;70359;51.420;7.032;2023-07-13T05:12:12;0.6;;;0.6;;
80910;SDS011;70359;51.420;7.032;2023-07-13T05:14:37;6.1;;;1.5;;
80910;SDS011;70359;51.420;7.032;2023-07-13T05:17:02;6.1;;;1.5;;
80910;SDS011;70359;51.420;7.032;2023-07-13T05:19:27;1.4;;;0.8;;
80910;SDS011;70359;51.420;7.032;2023-07-13T05:21:52;1.4;;;0.8;;
80910;SDS011;70359;51.420;7.032;2023-07-13T05:24:31;1.7;;;0.8;;
80910;SDS011;70359;51.420;7.032;2023-07-13T05:26:42;1.7;;;0.8;;
80910;SDS011;70359;51.420;7.032;2023-07-13T05:29:07;0.9;;;0.7;;
80910;SDS011;70359;51.420;7.032;2023-07-13T05:31:32;0.9;;;0.7;;
80910;SDS011;70359;51.420;7.032;2023-07-13T05:33:57;1.2;;;0.9;;
80910;SDS011;70359;51.420;7.032;2023-07-13T05:36:22;1.2;;;0.9;;
80910;SDS011;70359;51.420;7.032;2023-07-13T05:38:47;1.2;;;0.9;;
80910;SDS011;70359;51.420;7.032;2023-07-13T05:41:16;1.1;;;0.9;;
80910;SDS011;70359;51.420;7.032;2023-07-13T05:43:41;1.1;;;0.9;;
80910;SDS011;70359;51.420;7.032;2023-07-13T05:46:02;0.8;;;0.8;;
80910;SDS011;70359;51.420;7.032;2023-07-13T05:48:27;0.8;;;0.8;;
80910;SDS011;70359;51.420;7.032;2023-07-13T05:50:52;0.8;;;0.8;;
80910;SDS011;70359;51.420;7.032;2023-07-13T05:53:17;0.8;;;0.8;;
80910;SDS011;70359;51.420;7.032;2023-07-13T05:55:45;0.8;;;0.8;;
80910;SDS011;70359;51.420;7.032;2023-07-13T05:58:07;0.8;;;0.8;;
80910;SDS011;70359;51.420;7.032;2023-07-13T06:00:36;6.8;;;1.3;;
80910;SDS011;70359;51.420;7.032;2023-07-13T06:03:01;6.8;;;1.3;;
80910;SDS011;70359;51.420;7.032;2023-07-13T06:05:26;1.3;;;0.8;;
80910;SDS011;70359;51.420;7.032;2023-07-13T06:07:47;1.3;;;0.8;;
80910;SDS011;70359;51.420;7.032;2023-07-13T06:10:12;0.9;;;0.8;;
80910;SDS011;70359;51.420;7.032;2023-07-13T06:12:37;0.9;;;0.8;;
80910;SDS011;70359;51.420;7.032;2023-07-13T06:15:02;0.8;;;0.6;;
80910;SDS011;70359;51.420;7.032;2023-07-13T06:17:27;0.8;;;0.6;;
80910;SDS011;70359;51.420;7.032;2023-07-13T06:19:52;1.2;;;1.1;;
80910;SDS011;70359;51.420;7.032;2023-07-13T06:22:17;1.2;;;1.1;;
80910;SDS011;70359;51.420;7.032;2023-07-13T06:24:42;1.2;;;1;;
80910;SDS011;70359;51.420;7.032;2023-07-13T06:27:07;1.2;;;1;;
80910;SDS011;70359;51.420;7.032;2023-07-13T06:29:32;1.4;;;0.9;;
80910;SDS011;70359;51.420;7.032;2023-07-13T06:31:57;1.4;;;0.9;;
80910;SDS011;70359;51.420;7.032;2023-07-13T06:34:22;1.2;;;0.9;;
80910;SDS011;70359;51.420;7.032;2023-07-13T06:36:47;1.2;;;0.9;;
80910;SDS011;70359;51.420;7.032;2023-07-13T06:39:16;1.9;;;1.2;;
80910;SDS011;70359;51.420;7.032;2023-07-13T06:41:41;1.9;;;1.2;;
80910;SDS011;70359;51.420;7.032;2023-07-13T06:44:02;1.6;;;1.2;;
80910;SDS011;70359;51.420;7.032;2023-07-13T06:46:28;1.6;;;1.2;;
80910;SDS011;70359;51.420;7.032;2023-07-13T06:48:56;1.6;;;1.2;;
80910;SDS011;70359;51.420;7.032;2023-07-13T06:51:17;1.7;;;1;;
80910;SDS011;70359;51.420;7.032;2023-07-13T06:53:42;1.7;;;1;;
80910;SDS011;70359;51.420;7.032;2023-07-13T06:56:11;0.8;;;0.7;;
80910;SDS011;70359;51.420;7.032;2023-07-13T06:58:34;0.8;;;0.7;;
80910;SDS011;70359;51.420;7.032;2023-07-13T07:00:57;1;;;0.9;;
80910;SDS011;70359;51.420;7.032;2023-07-13T07:03:22;1;;;0.9;;
80910;SDS011;70359;51.420;7.032;2023-07-13T07:05:51;2;;;0.9;;
80910;SDS011;70359;51.420;7.032;2023-07-13T07:08:16;2;;;0.9;;
80910;SDS011;70359;51.420;7.032;2023-07-13T07:10:37;5.1;;;1;;
80910;SDS011;70359;51.420;7.032;2023-07-13T07:13:03;5.1;;;1;;
80910;SDS011;70359;51.420;7.032;2023-07-13T07:15:31;2.5;;;1.2;;
80910;SDS011;70359;51.420;7.032;2023-07-13T07:17:56;2.5;;;1.2;;
80910;SDS011;70359;51.420;7.032;2023-07-13T07:20:21;1.3;;;1.1;;
80910;SDS011;70359;51.420;7.032;2023-07-13T07:22:46;1.3;;;1.1;;
80910;SDS011;70359;51.420;7.032;2023-07-13T07:25:11;1.4;;;1.1;;
80910;SDS011;70359;51.420;7.032;2023-07-13T07:27:36;1.4;;;1.1;;
80910;SDS011;70359;51.420;7.032;2023-07-13T07:29:57;1.5;;;1.3;;
80910;SDS011;70359;51.420;7.032;2023-07-13T07:32:32;1.5;;;1.3;;
80910;SDS011;70359;51.420;7.032;2023-07-13T07:34:47;1.4;;;1.1;;
80910;SDS011;70359;51.420;7.032;2023-07-13T07:37:13;1.4;;;1.1;;
80910;SDS011;70359;51.420;7.032;2023-07-13T07:39:42;2;;;1.2;;
80910;SDS011;70359;51.420;7.032;2023-07-13T07:42:06;2;;;1.2;;
80910;SDS011;70359;51.420;7.032;2023-07-13T07:44:31;3.3;;;1.1;;
80910;SDS011;70359;51.420;7.032;2023-07-13T07:46:52;3.3;;;1.1;;
80910;SDS011;70359;51.420;7.032;2023-07-13T07:49:17;2.2;;;1.3;;
80910;SDS011;70359;51.420;7.032;2023-07-13T07:51:46;2.2;;;1.3;;
80910;SDS011;70359;51.420;7.032;2023-07-13T07:54:07;2.2;;;1.5;;
80910;SDS011;70359;51.420;7.032;2023-07-13T07:56:32;2.2;;;1.5;;
80910;SDS011;70359;51.420;7.032;2023-07-13T07:58:57;2.2;;;1.5;;
80910;SDS011;70359;51.420;7.032;2023-07-13T08:01:22;2.1;;;1.3;;
80910;SDS011;70359;51.420;7.032;2023-07-13T08:03:47;2.1;;;1.3;;
80910;SDS011;70359;51.420;7.032;2023-07-13T08:06:12;1.8;;;1.3;;
80910;SDS011;70359;51.420;7.032;2023-07-13T08:08:42;1.8;;;1.3;;
80910;SDS011;70359;51.420;7.032;2023-07-13T08:11:03;1.4;;;1.3;;
80910;SDS011;70359;51.420;7.032;2023-07-13T08:13:27;1.4;;;1.3;;
80910;SDS011;70359;51.420;7.032;2023-07-13T08:15:52;2.8;;;1.3;;
80910;SDS011;70359;51.420;7.032;2023-07-13T08:18:17;2.8;;;1.3;;
80910;SDS011;70359;51.420;7.032;2023-07-13T08:20:46;1.3;;;1.2;;
80910;SDS011;70359;51.420;7.032;2023-07-13T08:23:09;1.3;;;1.2;;
80910;SDS011;70359;51.420;7.032;2023-07-13T08:25:32;1.6;;;1.3;;
80910;SDS011;70359;51.420;7.032;2023-07-13T08:27:57;1.6;;;1.3;;
80910;SDS011;70359;51.420;7.032;2023-07-13T08:30:22;1.5;;;1.1;;
80910;SDS011;70359;51.420;7.032;2023-07-13T08:32:47;1.5;;;1.1;;
80910;SDS011;70359;51.420;7.032;2023-07-13T08:35:16;8.3;;;1.3;;
80910;SDS011;70359;51.420;7.032;2023-07-13T08:37:37;8.3;;;1.3;;
80910;SDS011;70359;51.420;7.032;2023-07-13T08:40:03;3.1;;;1.4;;
80910;SDS011;70359;51.420;7.032;2023-07-13T08:42:33;3.1;;;1.4;;
80910;SDS011;70359;51.420;7.032;2023-07-13T08:44:58;1.5;;;1.3;;
80910;SDS011;70359;51.420;7.032;2023-07-13T08:47:24;1.5;;;1.3;;
80910;SDS011;70359;51.420;7.032;2023-07-13T08:49:44;1.2;;;1.1;;
80910;SDS011;70359;51.420;7.032;2023-07-13T08:52:11;1.2;;;1.1;;
80910;SDS011;70359;51.420;7.032;2023-07-13T08:54:36;1.1;;;1;;
80910;SDS011;70359;51.420;7.032;2023-07-13T08:56:58;1.1;;;1;;
80910;SDS011;70359;51.420;7.032;2023-07-13T08:59:25;1.8;;;1.3;;
80910;SDS011;70359;51.420;7.032;2023-07-13T09:01:54;1.8;;;1.3;;
80910;SDS011;70359;51.420;7.032;2023-07-13T09:04:16;1.5;;;1.3;;
80910;SDS011;70359;51.420;7.032;2023-07-13T09:06:44;1.5;;;1.3;;
80910;SDS011;70359;51.420;7.032;2023-07-13T09:09:08;1.5;;;1.3;;
80910;SDS011;70359;51.420;7.032;2023-07-13T09:11:36;1.8;;;1.1;;
80910;SDS011;70359;51.420;7.032;2023-07-13T09:14:00;1.8;;;1.1;;
80910;SDS011;70359;51.420;7.032;2023-07-13T09:16:18;2.6;;;1.2;;
80910;SDS011;70359;51.420;7.032;2023-07-13T09:18:46;2.6;;;1.2;;
80910;SDS011;70359;51.420;7.032;2023-07-13T09:21:10;1.4;;;1.1;;
80910;SDS011;70359;51.420;7.032;2023-07-13T09:23:34;1.4;;;1.1;;
80910;SDS011;70359;51.420;7.032;2023-07-13T09:26:00;2;;;1.3;;
80910;SDS011;70359;51.420;7.032;2023-07-13T09:28:24;2;;;1.3;;
80910;SDS011;70359;51.420;7.032;2023-07-13T09:30:51;3.3;;;1.6;;
80910;SDS011;70359;51.420;7.032;2023-07-13T09:33:13;3.3;;;1.6;;
80910;SDS011;70359;51.420;7.032;2023-07-13T09:35:38;1.1;;;1;;
80910;SDS011;70359;51.420;7.032;2023-07-13T09:38:10;1.1;;;1;;
80910;SDS011;70359;51.420;7.032;2023-07-13T09:40:32;1.7;;;1.1;;
80910;SDS011;70359;51.420;7.032;2023-07-13T09:42:53;1.7;;;1.1;;
80910;SDS011;70359;51.420;7.032;2023-07-13T09:45:26;1.4;;;1.3;;
80910;SDS011;70359;51.420;7.032;2023-07-13T09:47:43;1.4;;;1.3;;
80910;SDS011;70359;51.420;7.032;2023-07-13T09:50:14;4.1;;;1.5;;
80910;SDS011;70359;51.420;7.032;2023-07-13T09:52:40;4.1;;;1.5;;
80910;SDS011;70359;51.420;7.032;2023-07-13T09:54:58;1.5;;;1.2;;
80910;SDS011;70359;51.420;7.032;2023-07-13T09:57:23;1.5;;;1.2;;
80910;SDS011;70359;51.420;7.032;2023-07-13T09:59:54;1.7;;;1;;
80910;SDS011;70359;51.420;7.032;2023-07-13T10:02:31;1.7;;;1;;
80910;SDS011;70359;51.420;7.032;2023-07-13T10:04:38;1.6;;;1.2;;
80910;SDS011;70359;51.420;7.032;2023-07-13T10:07:12;1.6;;;1.2;;
80910;SDS011;70359;51.420;7.032;2023-07-13T10:09:32;1.7;;;1.3;;
80910;SDS011;70359;51.420;7.032;2023-07-13T10:11:53;1.7;;;1.3;;
80910;SDS011;70359;51.420;7.032;2023-07-13T10:14:21;4.4;;;1.5;;
80910;SDS011;70359;51.420;7.032;2023-07-13T10:16:45;4.4;;;1.5;;
80910;SDS011;70359;51.420;7.032;2023-07-13T10:19:11;4.4;;;1.5;;
80910;SDS011;70359;51.420;7.032;2023-07-13T10:21:35;1.7;;;1.2;;
80910;SDS011;70359;51.420;7.032;2023-07-13T10:24:02;1.7;;;1.2;;
80910;SDS011;70359;51.420;7.032;2023-07-13T10:26:25;1.2;;;0.9;;
80910;SDS011;70359;51.420;7.032;2023-07-13T10:28:51;1.2;;;0.9;;
80910;SDS011;70359;51.420;7.032;2023-07-13T10:31:18;2.1;;;1.3;;
80910;SDS011;70359;51.420;7.032;2023-07-13T10:33:38;2.1;;;1.3;;
80910;SDS011;70359;51.420;7.032;2023-07-13T10:36:09;1.2;;;1;;
80910;SDS011;70359;51.420;7.032;2023-07-13T10:38:28;1.2;;;1;;
80910;SDS011;70359;51.420;7.032;2023-07-13T10:40:58;2.2;;;1.4;;
80910;SDS011;70359;51.420;7.032;2023-07-13T10:43:26;2.2;;;1.4;;
80910;SDS011;70359;51.420;7.032;2023-07-13T10:45:45;1.2;;;1.1;;
80910;SDS011;70359;51.420;7.032;2023-07-13T10:48:10;1.2;;;1.1;;
80910;SDS011;70359;51.420;7.032;2023-07-13T10:50:37;2;;;1.2;;
80910;SDS011;70359;51.420;7.032;2023-07-13T10:53:01;2;;;1.2;;
80910;SDS011;70359;51.420;7.032;2023-07-13T10:55:37;1.2;;;1.1;;
80910;SDS011;70359;51.420;7.032;2023-07-13T10:57:48;1.2;;;1.1;;
80910;SDS011;70359;51.420;7.032;2023-07-13T11:00:17;1.1;;;1;;
80910;SDS011;70359;51.420;7.032;2023-07-13T11:02:38;1.1;;;1;;
80910;SDS011;70359;51.420;7.032;2023-07-13T11:05:28;1.4;;;1;;
80910;SDS011;70359;51.420;7.032;2023-07-13T11:07:30;1.4;;;1;;
80910;SDS011;70359;51.420;7.032;2023-07-13T11:09:54;1.3;;;1;;
80910;SDS011;70359;51.420;7.032;2023-07-13T11:12:53;1.3;;;1;;
80910;SDS011;70359;51.420;7.032;2023-07-13T11:15:06;1.4;;;1.1;;
80910;SDS011;70359;51.420;7.032;2023-07-13T11:17:46;1.4;;;1.1;;
80910;SDS011;70359;51.420;7.032;2023-07-13T11:19:51;1.6;;;1.1;;
80910;SDS011;70359;51.420;7.032;2023-07-13T11:22:11;1.6;;;1.1;;
80910;SDS011;70359;51.420;7.032;2023-07-13T11:24:29;9.1;;;1.2;;
80910;SDS011;70359;51.420;7.032;2023-07-13T11:26:52;9.1;;;1.2;;
80910;SDS011;70359;51.420;7.032;2023-07-13T11:29:32;9.1;;;1.2;;
80910;SDS011;70359;51.420;7.032;2023-07-13T11:31:43;2.5;;;1.3;;
80910;SDS011;70359;51.420;7.032;2023-07-13T11:34:16;2.5;;;1.3;;
80910;SDS011;70359;51.420;7.032;2023-07-13T11:36:30;1.4;;;1;;
80910;SDS011;70359;51.420;7.032;2023-07-13T11:38:57;1.4;;;1;;
80910;SDS011;70359;51.420;7.032;2023-07-13T11:41:19;1.3;;;1;;
80910;SDS011;70359;51.420;7.032;2023-07-13T11:43:43;1.3;;;1;;
80910;SDS011;70359;51.420;7.032;2023-07-13T11:46:20;1.9;;;1.2;;
80910;SDS011;70359;51.420;7.032;2023-07-13T11:48:33;1.9;;;1.2;;
80910;SDS011;70359;51.420;7.032;2023-07-13T11:51:01;1.2;;;1;;
80910;SDS011;70359;51.420;7.032;2023-07-13T11:53:26;1.2;;;1;;
80910;SDS011;70359;51.420;7.032;2023-07-13T11:55:48;0.8;;;0.8;;
80910;SDS011;70359;51.420;7.032;2023-07-13T11:58:17;0.8;;;0.8;;
80910;SDS011;70359;51.420;7.032;2023-07-13T12:00:38;0.7;;;0.7;;
80910;SDS011;70359;51.420;7.032;2023-07-13T12:03:04;0.7;;;0.7;;
80910;SDS011;70359;51.420;7.032;2023-07-13T12:05:28;0.9;;;0.8;;
80910;SDS011;70359;51.420;7.032;2023-07-13T12:07:53;0.9;;;0.8;;
80910;SDS011;70359;51.420;7.032;2023-07-13T12:10:22;1.3;;;1;;
80910;SDS011;70359;51.420;7.032;2023-07-13T12:12:46;1.3;;;1;;
80910;SDS011;70359;51.420;7.032;2023-07-13T12:15:15;1.5;;;1.1;;
80910;SDS011;70359;51.420;7.032;2023-07-13T12:17:34;1.5;;;1.1;;
80910;SDS011;70359;51.420;7.032;2023-07-13T12:19:58;1.2;;;1.1;;
80910;SDS011;70359;51.420;7.032;2023-07-13T12:22:23;1.2;;;1.1;;
80910;SDS011;70359;51.420;7.032;2023-07-13T12:24:48;0.9;;;0.8;;
80910;SDS011;70359;51.420;7.032;2023-07-13T12:27:19;0.9;;;0.8;;
80910;SDS011;70359;51.420;7.032;2023-07-13T12:29:38;0.7;;;0.7;;
80910;SDS011;70359;51.420;7.032;2023-07-13T12:32:14;0.7;;;0.7;;
80910;SDS011;70359;51.420;7.032;2023-07-13T12:34:28;0.7;;;0.7;;
80910;SDS011;70359;51.420;7.032;2023-07-13T12:36:55;1.3;;;1.2;;
80910;SDS011;70359;51.420;7.032;2023-07-13T12:39:20;1.3;;;1.2;;
80910;SDS011;70359;51.420;7.032;2023-07-13T12:41:47;2.8;;;1;;
80910;SDS011;70359;51.420;7.032;2023-07-13T12:44:09;2.8;;;1;;
80910;SDS011;70359;51.420;7.032;2023-07-13T12:46:33;2.5;;;0.9;;
80910;SDS011;70359;51.420;7.032;2023-07-13T12:49:04;2.5;;;0.9;;
80910;SDS011;70359;51.420;7.032;2023-07-13T12:51:26;0.8;;;0.8;;
80910;SDS011;70359;51.420;7.032;2023-07-13T12:53:56;0.8;;;0.8;;
80910;SDS011;70359;51.420;7.032;2023-07-13T12:56:18;0.6;;;0.6;;
80910;SDS011;70359;51.420;7.032;2023-07-13T12:58:41;0.6;;;0.6;;
80910;SDS011;70359;51.420;7.032;2023-07-13T13:01:04;1.7;;;0.8;;
80910;SDS011;70359;51.420;7.032;2023-07-13T13:03:31;1.7;;;0.8;;
80910;SDS011;70359;51.420;7.032;2023-07-13T13:05:56;0.9;;;0.7;;
80910;SDS011;70359;51.420;7.032;2023-07-13T13:08:18;0.9;;;0.7;;
80910;SDS011;70359;51.420;7.032;2023-07-13T13:10:43;0.9;;;0.7;;
80910;SDS011;70359;51.420;7.032;2023-07-13T13:13:08;0.9;;;0.7;;
80910;SDS011;70359;51.420;7.032;2023-07-13T13:15:33;1.3;;;0.9;;
80910;SDS011;70359;51.420;7.032;2023-07-13T13:17:58;1.3;;;0.9;;
80910;SDS011;70359;51.420;7.032;2023-07-13T13:20:23;0.8;;;0.8;;
80910;SDS011;70359;51.420;7.032;2023-07-13T13:22:48;0.8;;;0.8;;
80910;SDS011;70359;51.420;7.032;2023-07-13T13:25:14;1.4;;;0.9;;
80910;SDS011;70359;51.420;7.032;2023-07-13T13:27:39;1.4;;;0.9;;
80910;SDS011;70359;51.420;7.032;2023-07-13T13:30:08;1.1;;;0.9;;
80910;SDS011;70359;51.420;7.032;2023-07-13T13:32:28;1.1;;;0.9;;
80910;SDS011;70359;51.420;7.032;2023-07-13T13:34:57;0.8;;;0.8;;
80910;SDS011;70359;51.420;7.032;2023-07-13T13:37:23;0.8;;;0.8;;
80910;SDS011;70359;51.420;7.032;2023-07-13T13:39:43;1.2;;;1;;
80910;SDS011;70359;51.420;7.032;2023-07-13T13:42:09;1.2;;;1;;
80910;SDS011;70359;51.420;7.032;2023-07-13T13:44:33;1.2;;;1;;
80910;SDS011;70359;51.420;7.032;2023-07-13T13:46:58;7.6;;;1.2;;
80910;SDS011;70359;51.420;7.032;2023-07-13T13:49:25;7.6;;;1.2;;
80910;SDS011;70359;51.420;7.032;2023-07-13T13:51:48;1.1;;;1;;
80910;SDS011;70359;51.420;7.032;2023-07-13T13:54:15;1.1;;;1;;
80910;SDS011;70359;51.420;7.032;2023-07-13T13:56:42;0.7;;;0.7;;
80910;SDS011;70359;51.420;7.032;2023-07-13T13:59:03;0.7;;;0.7;;
80910;SDS011;70359;51.420;7.032;2023-07-13T14:01:29;1.8;;;1;;
80910;SDS011;70359;51.420;7.032;2023-07-13T14:03:57;1.8;;;1;;
80910;SDS011;70359;51.420;7.032;2023-07-13T14:06:18;1.5;;;1.2;;
80910;SDS011;70359;51.420;7.032;2023-07-13T14:08:43;1.5;;;1.2;;
80910;SDS011;70359;51.420;7.032;2023-07-13T14:11:11;1.4;;;1.2;;
80910;SDS011;70359;51.420;7.032;2023-07-13T14:13:41;1.4;;;1.2;;
80910;SDS011;70359;51.420;7.032;2023-07-13T14:15:58;1.1;;;0.8;;
80910;SDS011;70359;51.420;7.032;2023-07-13T14:18:23;1.1;;;0.8;;
80910;SDS011;70359;51.420;7.032;2023-07-13T14:20:52;1.2;;;1.1;;
80910;SDS011;70359;51.420;7.032;2023-07-13T14:23:14;1.2;;;1.1;;
80910;SDS011;70359;51.420;7.032;2023-07-13T14:25:42;2.2;;;1.5;;
80910;SDS011;70359;51.420;7.032;2023-07-13T14:28:24;2.2;;;1.5;;
80910;SDS011;70359;51.420;7.032;2023-07-13T14:30:28;1.6;;;1.5;;
80910;SDS011;70359;51.420;7.032;2023-07-13T14:32:53;1.6;;;1.5;;
80910;SDS011;70359;51.420;7.032;2023-07-13T14:35:21;2;;;1.6;;
80910;SDS011;70359;51.420;7.032;2023-07-13T14:37:44;2;;;1.6;;
80910;SDS011;70359;51.420;7.032;2023-07-13T14:40:11;1.7;;;1.6;;
80910;SDS011;70359;51.420;7.032;2023-07-13T14:42:33;1.7;;;1.6;;
80910;SDS011;70359;51.420;7.032;2023-07-13T14:44:58;2.2;;;1.8;;
80910;SDS011;70359;51.420;7.032;2023-07-13T14:47:23;2.2;;;1.8;;
80910;SDS011;70359;51.420;7.032;2023-07-13T14:49:48;2.6;;;1.1;;
80910;SDS011;70359;51.420;7.032;2023-07-13T14:52:17;2.6;;;1.1;;
80910;SDS011;70359;51.420;7.032;2023-07-13T14:54:38;2.6;;;1.1;;
80910;SDS011;70359;51.420;7.032;2023-07-13T14:57:04;2.1;;;1.7;;
80910;SDS011;70359;51.420;7.032;2023-07-13T14:59:28;2.1;;;1.7;;
80910;SDS011;70359;51.420;7.032;2023-07-13T15:01:53;1.5;;;1.4;;
80910;SDS011;70359;51.420;7.032;2023-07-13T15:04:18;1.5;;;1.4;;